sensor_id;sensor_type;location;lat;lon;timestamp;temperature;humidity
12849;DHT22;6493;50.928;7.172;2022-11-20T00:02:48;-0.30;61.90
12849;DHT22;6493;50.928;7.172;2022-11-20T00:07:53;-0.20;61.90
12849;DHT22;6493;50.928;7.172;2022-11-20T00:12:57;-0.20;61.80
12849;DHT22;6493;50.928;7.172;2022-11-20T00:18:01;-0.20;61.60
12849;DHT22;6493;50.928;7.172;2022-11-20T00:23:06;-0.20;61.30
12849;DHT22;6493;50.928;7.172;2022-11-20T00:28:10;-0.20;61.50
12849;DHT22;6493;50.928;7.172;2022-11-20T00:33:13;-0.20;61.60
12849;DHT22;6493;50.928;7.172;2022-11-20T00:38:18;-0.30;61.30
12849;DHT22;6493;50.928;7.172;2022-11-20T00:43:22;-0.30;61.60
12849;DHT22;6493;50.928;7.172;2022-11-20T00:48:26;-0.20;61.70
12849;DHT22;6493;50.928;7.172;2022-11-20T00:53:31;-0.20;61.40
12849;DHT22;6493;50.928;7.172;2022-11-20T00:58:36;-0.20;61.40
12849;DHT22;6493;50.928;7.172;2022-11-20T01:03:42;-0.20;61.60
12849;DHT22;6493;50.928;7.172;2022-11-20T01:08:47;-0.30;61.40
12849;DHT22;6493;50.928;7.172;2022-11-20T01:13:52;-0.30;61.40
12849;DHT22;6493;50.928;7.172;2022-11-20T01:18:58;-0.20;61.60
12849;DHT22;6493;50.928;7.172;2022-11-20T01:24:05;-0.20;61.40
12849;DHT22;6493;50.928;7.172;2022-11-20T01:29:13;-0.30;61.50
12849;DHT22;6493;50.928;7.172;2022-11-20T01:34:18;-0.30;61.50
12849;DHT22;6493;50.928;7.172;2022-11-20T01:39:25;-0.20;61.50
12849;DHT22;6493;50.928;7.172;2022-11-20T01:44:57;-0.20;61.60
12849;DHT22;6493;50.928;7.172;2022-11-20T01:50:05;-0.20;61.50
12849;DHT22;6493;50.928;7.172;2022-11-20T01:55:14;-0.20;61.60
12849;DHT22;6493;50.928;7.172;2022-11-20T02:00:20;-0.20;61.30
12849;DHT22;6493;50.928;7.172;2022-11-20T02:05:27;-0.20;61.20
12849;DHT22;6493;50.928;7.172;2022-11-20T02:10:33;-0.30;61.10
12849;DHT22;6493;50.928;7.172;2022-11-20T02:15:37;-0.30;61.20
12849;DHT22;6493;50.928;7.172;2022-11-20T02:20:42;-0.30;61.00
12849;DHT22;6493;50.928;7.172;2022-11-20T02:25:49;-0.30;61.20
12849;DHT22;6493;50.928;7.172;2022-11-20T02:30:54;-0.40;61.10
12849;DHT22;6493;50.928;7.172;2022-11-20T02:35:57;-0.40;61.30
12849;DHT22;6493;50.928;7.172;2022-11-20T02:41:03;-0.40;61.50
12849;DHT22;6493;50.928;7.172;2022-11-20T02:46:06;-0.40;61.20
12849;DHT22;6493;50.928;7.172;2022-11-20T02:51:10;-0.40;61.50
12849;DHT22;6493;50.928;7.172;2022-11-20T02:56:15;-0.40;61.60
12849;DHT22;6493;50.928;7.172;2022-11-20T03:01:19;-0.30;61.90
12849;DHT22;6493;50.928;7.172;2022-11-20T03:06:22;-0.30;61.60
12849;DHT22;6493;50.928;7.172;2022-11-20T03:11:28;-0.30;61.50
12849;DHT22;6493;50.928;7.172;2022-11-20T03:16:32;-0.30;61.50
12849;DHT22;6493;50.928;7.172;2022-11-20T03:21:36;-0.30;61.60
12849;DHT22;6493;50.928;7.172;2022-11-20T03:26:41;-0.40;61.50
12849;DHT22;6493;50.928;7.172;2022-11-20T03:31:44;-0.30;61.60
12849;DHT22;6493;50.928;7.172;2022-11-20T03:36:48;-0.30;62.30
12849;DHT22;6493;50.928;7.172;2022-11-20T03:41:53;-0.40;62.30
12849;DHT22;6493;50.928;7.172;2022-11-20T03:46:57;-0.40;61.70
12849;DHT22;6493;50.928;7.172;2022-11-20T03:52:00;-0.40;61.70
12849;DHT22;6493;50.928;7.172;2022-11-20T03:57:05;-0.40;61.60
12849;DHT22;6493;50.928;7.172;2022-11-20T04:02:09;-0.40;61.80
12849;DHT22;6493;50.928;7.172;2022-11-20T04:07:12;-0.40;61.70
12849;DHT22;6493;50.928;7.172;2022-11-20T04:12:17;-0.40;61.80
12849;DHT22;6493;50.928;7.172;2022-11-20T04:17:21;-0.30;62.10
12849;DHT22;6493;50.928;7.172;2022-11-20T04:22:25;-0.30;62.00
12849;DHT22;6493;50.928;7.172;2022-11-20T04:27:30;-0.30;61.90
12849;DHT22;6493;50.928;7.172;2022-11-20T04:32:34;-0.30;61.80
12849;DHT22;6493;50.928;7.172;2022-11-20T04:37:37;-0.30;62.10
12849;DHT22;6493;50.928;7.172;2022-11-20T04:42:42;-0.30;61.80
12849;DHT22;6493;50.928;7.172;2022-11-20T04:47:46;-0.30;61.90
12849;DHT22;6493;50.928;7.172;2022-11-20T04:52:49;-0.30;61.90
12849;DHT22;6493;50.928;7.172;2022-11-20T04:57:54;-0.40;62.50
12849;DHT22;6493;50.928;7.172;2022-11-20T05:02:58;-0.40;61.90
12849;DHT22;6493;50.928;7.172;2022-11-20T05:08:02;-0.40;62.00
12849;DHT22;6493;50.928;7.172;2022-11-20T05:13:07;-0.40;62.00
12849;DHT22;6493;50.928;7.172;2022-11-20T05:18:10;-0.40;62.10
12849;DHT22;6493;50.928;7.172;2022-11-20T05:23:14;-0.40;62.20
12849;DHT22;6493;50.928;7.172;2022-11-20T05:28:19;-0.30;62.50
12849;DHT22;6493;50.928;7.172;2022-11-20T05:33:24;-0.30;62.50
12849;DHT22;6493;50.928;7.172;2022-11-20T05:38:28;-0.20;62.50
12849;DHT22;6493;50.928;7.172;2022-11-20T05:43:34;-0.20;62.50
12849;DHT22;6493;50.928;7.172;2022-11-20T05:48:38;-0.10;62.50
12849;DHT22;6493;50.928;7.172;2022-11-20T05:53:43;-0.10;62.50
12849;DHT22;6493;50.928;7.172;2022-11-20T05:58:51;-0.10;62.40
12849;DHT22;6493;50.928;7.172;2022-11-20T06:03:55;0.00;62.50
12849;DHT22;6493;50.928;7.172;2022-11-20T06:08:58;0.00;62.50
12849;DHT22;6493;50.928;7.172;2022-11-20T06:14:03;0.00;62.40
12849;DHT22;6493;50.928;7.172;2022-11-20T06:19:07;0.00;62.40
12849;DHT22;6493;50.928;7.172;2022-11-20T06:24:11;0.10;62.50
12849;DHT22;6493;50.928;7.172;2022-11-20T06:29:16;0.10;62.40
12849;DHT22;6493;50.928;7.172;2022-11-20T06:34:20;0.10;62.50
12849;DHT22;6493;50.928;7.172;2022-11-20T06:39:23;0.10;62.50
12849;DHT22;6493;50.928;7.172;2022-11-20T06:44:28;0.10;62.50
12849;DHT22;6493;50.928;7.172;2022-11-20T06:49:32;0.10;62.40
12849;DHT22;6493;50.928;7.172;2022-11-20T06:54:36;0.10;62.40
12849;DHT22;6493;50.928;7.172;2022-11-20T06:59:41;0.00;62.40
12849;DHT22;6493;50.928;7.172;2022-11-20T07:04:45;0.00;62.30
12849;DHT22;6493;50.928;7.172;2022-11-20T07:09:48;0.10;62.50
12849;DHT22;6493;50.928;7.172;2022-11-20T07:14:53;0.10;62.50
12849;DHT22;6493;50.928;7.172;2022-11-20T07:19:57;0.10;62.50
12849;DHT22;6493;50.928;7.172;2022-11-20T07:25:01;0.10;62.60
12849;DHT22;6493;50.928;7.172;2022-11-20T07:30:07;0.10;62.70
12849;DHT22;6493;50.928;7.172;2022-11-20T07:35:11;0.10;62.60
12849;DHT22;6493;50.928;7.172;2022-11-20T07:40:15;0.10;62.60
12849;DHT22;6493;50.928;7.172;2022-11-20T07:45:21;0.10;62.60
12849;DHT22;6493;50.928;7.172;2022-11-20T07:50:25;0.10;62.60
12849;DHT22;6493;50.928;7.172;2022-11-20T07:55:29;0.10;62.70
12849;DHT22;6493;50.928;7.172;2022-11-20T08:00:34;0.10;62.80
12849;DHT22;6493;50.928;7.172;2022-11-20T08:05:37;0.20;62.90
12849;DHT22;6493;50.928;7.172;2022-11-20T08:10:41;0.20;62.90
12849;DHT22;6493;50.928;7.172;2022-11-20T08:15:49;0.20;62.90
12849;DHT22;6493;50.928;7.172;2022-11-20T08:20:53;0.30;63.10
12849;DHT22;6493;50.928;7.172;2022-11-20T08:25:57;0.30;63.10
12849;DHT22;6493;50.928;7.172;2022-11-20T08:31:03;0.30;63.10
12849;DHT22;6493;50.928;7.172;2022-11-20T08:36:07;0.40;63.20
12849;DHT22;6493;50.928;7.172;2022-11-20T08:41:10;0.40;63.20
12849;DHT22;6493;50.928;7.172;2022-11-20T08:46:34;0.50;63.20
12849;DHT22;6493;50.928;7.172;2022-11-20T08:51:39;0.50;63.40
12849;DHT22;6493;50.928;7.172;2022-11-20T08:56:43;0.60;63.50
12849;DHT22;6493;50.928;7.172;2022-11-20T09:01:48;0.70;63.50
12849;DHT22;6493;50.928;7.172;2022-11-20T09:06:52;0.80;63.50
12849;DHT22;6493;50.928;7.172;2022-11-20T09:11:56;0.80;63.40
12849;DHT22;6493;50.928;7.172;2022-11-20T09:17:01;0.90;63.40
12849;DHT22;6493;50.928;7.172;2022-11-20T09:22:30;0.90;64.00
12849;DHT22;6493;50.928;7.172;2022-11-20T09:27:34;1.00;63.20
12849;DHT22;6493;50.928;7.172;2022-11-20T09:32:40;1.00;63.10
12849;DHT22;6493;50.928;7.172;2022-11-20T09:37:43;1.00;63.10
12849;DHT22;6493;50.928;7.172;2022-11-20T09:42:54;1.10;63.20
12849;DHT22;6493;50.928;7.172;2022-11-20T09:53:35;1.10;63.50
12849;DHT22;6493;50.928;7.172;2022-11-20T09:58:46;1.20;63.60
12849;DHT22;6493;50.928;7.172;2022-11-20T10:03:57;1.40;63.50
12849;DHT22;6493;50.928;7.172;2022-11-20T10:09:19;1.40;63.40
12849;DHT22;6493;50.928;7.172;2022-11-20T10:14:31;1.50;63.30
12849;DHT22;6493;50.928;7.172;2022-11-20T10:19:47;1.50;63.10
12849;DHT22;6493;50.928;7.172;2022-11-20T10:25:02;1.60;63.10
12849;DHT22;6493;50.928;7.172;2022-11-20T10:30:09;1.60;63.20
12849;DHT22;6493;50.928;7.172;2022-11-20T10:35:20;1.60;62.80
12849;DHT22;6493;50.928;7.172;2022-11-20T10:40:30;1.60;62.40
12849;DHT22;6493;50.928;7.172;2022-11-20T10:45:43;1.50;62.40
12849;DHT22;6493;50.928;7.172;2022-11-20T10:51:15;1.50;63.30
12849;DHT22;6493;50.928;7.172;2022-11-20T10:56:26;1.50;62.80
12849;DHT22;6493;50.928;7.172;2022-11-20T11:01:31;1.40;62.80
12849;DHT22;6493;50.928;7.172;2022-11-20T11:06:39;1.50;62.80
12849;DHT22;6493;50.928;7.172;2022-11-20T11:11:45;1.50;62.70
12849;DHT22;6493;50.928;7.172;2022-11-20T11:16:50;1.50;62.70
12849;DHT22;6493;50.928;7.172;2022-11-20T11:21:56;1.50;63.00
12849;DHT22;6493;50.928;7.172;2022-11-20T11:27:02;1.60;63.00
12849;DHT22;6493;50.928;7.172;2022-11-20T11:32:08;1.60;62.90
12849;DHT22;6493;50.928;7.172;2022-11-20T11:37:17;1.60;62.60
12849;DHT22;6493;50.928;7.172;2022-11-20T11:42:21;1.60;62.70
12849;DHT22;6493;50.928;7.172;2022-11-20T11:47:27;1.50;63.40
12849;DHT22;6493;50.928;7.172;2022-11-20T11:52:41;1.50;62.70
12849;DHT22;6493;50.928;7.172;2022-11-20T11:57:49;1.50;62.90
12849;DHT22;6493;50.928;7.172;2022-11-20T12:03:00;1.50;62.80
12849;DHT22;6493;50.928;7.172;2022-11-20T12:08:17;1.50;63.00
12849;DHT22;6493;50.928;7.172;2022-11-20T12:13:34;1.50;63.00
12849;DHT22;6493;50.928;7.172;2022-11-20T12:18:40;1.50;63.00
12849;DHT22;6493;50.928;7.172;2022-11-20T12:24:15;1.50;63.20
12849;DHT22;6493;50.928;7.172;2022-11-20T12:29:31;1.50;63.10
12849;DHT22;6493;50.928;7.172;2022-11-20T12:34:55;1.50;63.10
12849;DHT22;6493;50.928;7.172;2022-11-20T12:40:15;1.60;63.50
12849;DHT22;6493;50.928;7.172;2022-11-20T12:45:35;1.60;63.60
12849;DHT22;6493;50.928;7.172;2022-11-20T12:51:04;1.70;63.50
12849;DHT22;6493;50.928;7.172;2022-11-20T12:56:27;1.70;63.50
12849;DHT22;6493;50.928;7.172;2022-11-20T13:01:40;1.80;63.70
12849;DHT22;6493;50.928;7.172;2022-11-20T13:06:51;1.80;63.80
12849;DHT22;6493;50.928;7.172;2022-11-20T13:12:02;1.90;63.70
12849;DHT22;6493;50.928;7.172;2022-11-20T13:17:11;1.90;63.50
12849;DHT22;6493;50.928;7.172;2022-11-20T13:22:24;1.90;63.60
12849;DHT22;6493;50.928;7.172;2022-11-20T13:27:29;2.00;64.00
12849;DHT22;6493;50.928;7.172;2022-11-20T13:32:33;2.00;64.60
12849;DHT22;6493;50.928;7.172;2022-11-20T13:37:38;2.10;63.70
12849;DHT22;6493;50.928;7.172;2022-11-20T13:42:51;2.10;63.60
12849;DHT22;6493;50.928;7.172;2022-11-20T13:48:02;2.10;63.60
12849;DHT22;6493;50.928;7.172;2022-11-20T13:53:15;2.10;63.60
12849;DHT22;6493;50.928;7.172;2022-11-20T13:58:40;2.10;63.60
12849;DHT22;6493;50.928;7.172;2022-11-20T14:03:48;2.20;63.90
12849;DHT22;6493;50.928;7.172;2022-11-20T14:09:11;2.20;63.80
12849;DHT22;6493;50.928;7.172;2022-11-20T14:14:18;2.30;63.90
12849;DHT22;6493;50.928;7.172;2022-11-20T14:19:27;2.30;63.90
12849;DHT22;6493;50.928;7.172;2022-11-20T14:24:32;2.30;63.90
12849;DHT22;6493;50.928;7.172;2022-11-20T14:29:38;2.30;63.80
12849;DHT22;6493;50.928;7.172;2022-11-20T14:34:44;2.30;63.90
12849;DHT22;6493;50.928;7.172;2022-11-20T14:39:50;2.30;64.00
12849;DHT22;6493;50.928;7.172;2022-11-20T14:44:57;2.30;64.00
12849;DHT22;6493;50.928;7.172;2022-11-20T14:50:02;2.30;64.10
12849;DHT22;6493;50.928;7.172;2022-11-20T14:55:14;2.30;64.10
12849;DHT22;6493;50.928;7.172;2022-11-20T15:00:30;2.30;64.20
12849;DHT22;6493;50.928;7.172;2022-11-20T15:05:47;2.30;64.90
12849;DHT22;6493;50.928;7.172;2022-11-20T15:10:52;2.30;64.20
12849;DHT22;6493;50.928;7.172;2022-11-20T15:15:58;2.30;64.30
12849;DHT22;6493;50.928;7.172;2022-11-20T15:21:04;2.30;64.50
12849;DHT22;6493;50.928;7.172;2022-11-20T15:26:11;2.30;64.60
12849;DHT22;6493;50.928;7.172;2022-11-20T15:31:23;2.30;64.70
12849;DHT22;6493;50.928;7.172;2022-11-20T15:36:27;2.30;64.60
12849;DHT22;6493;50.928;7.172;2022-11-20T15:41:30;2.30;64.60
12849;DHT22;6493;50.928;7.172;2022-11-20T15:46:38;2.30;65.50
12849;DHT22;6493;50.928;7.172;2022-11-20T15:51:46;2.30;65.00
12849;DHT22;6493;50.928;7.172;2022-11-20T15:56:50;2.40;65.30
12849;DHT22;6493;50.928;7.172;2022-11-20T16:01:56;2.40;65.40
12849;DHT22;6493;50.928;7.172;2022-11-20T16:07:00;2.40;65.40
12849;DHT22;6493;50.928;7.172;2022-11-20T16:12:04;2.40;65.50
12849;DHT22;6493;50.928;7.172;2022-11-20T16:17:09;2.50;65.70
12849;DHT22;6493;50.928;7.172;2022-11-20T16:22:14;2.50;65.80
12849;DHT22;6493;50.928;7.172;2022-11-20T16:27:17;2.50;65.80
12849;DHT22;6493;50.928;7.172;2022-11-20T16:32:22;2.50;65.80
12849;DHT22;6493;50.928;7.172;2022-11-20T16:37:25;2.50;65.80
12849;DHT22;6493;50.928;7.172;2022-11-20T16:42:33;2.50;66.30
12849;DHT22;6493;50.928;7.172;2022-11-20T16:47:38;2.50;66.30
12849;DHT22;6493;50.928;7.172;2022-11-20T16:52:41;2.60;66.60
12849;DHT22;6493;50.928;7.172;2022-11-20T16:57:45;2.60;66.70
12849;DHT22;6493;50.928;7.172;2022-11-20T17:02:50;2.60;67.00
12849;DHT22;6493;50.928;7.172;2022-11-20T17:07:53;2.60;67.30
12849;DHT22;6493;50.928;7.172;2022-11-20T17:12:57;2.60;67.20
12849;DHT22;6493;50.928;7.172;2022-11-20T17:18:02;2.60;67.20
12849;DHT22;6493;50.928;7.172;2022-11-20T17:23:05;2.60;67.20
12849;DHT22;6493;50.928;7.172;2022-11-20T17:28:09;2.60;67.60
12849;DHT22;6493;50.928;7.172;2022-11-20T17:33:14;2.60;68.00
12849;DHT22;6493;50.928;7.172;2022-11-20T17:38:17;2.60;68.10
12849;DHT22;6493;50.928;7.172;2022-11-20T17:43:21;2.50;68.20
12849;DHT22;6493;50.928;7.172;2022-11-20T17:48:26;2.50;68.80
12849;DHT22;6493;50.928;7.172;2022-11-20T17:53:33;2.50;68.90
12849;DHT22;6493;50.928;7.172;2022-11-20T17:58:37;2.50;69.60
12849;DHT22;6493;50.928;7.172;2022-11-20T18:03:42;2.50;69.50
12849;DHT22;6493;50.928;7.172;2022-11-20T18:08:46;2.50;68.60
12849;DHT22;6493;50.928;7.172;2022-11-20T18:13:52;2.50;69.10
12849;DHT22;6493;50.928;7.172;2022-11-20T18:19:16;2.50;69.00
12849;DHT22;6493;50.928;7.172;2022-11-20T18:24:20;2.50;70.40
12849;DHT22;6493;50.928;7.172;2022-11-20T18:29:25;2.50;71.00
12849;DHT22;6493;50.928;7.172;2022-11-20T18:34:30;2.50;70.30
12849;DHT22;6493;50.928;7.172;2022-11-20T18:39:34;2.50;69.50
12849;DHT22;6493;50.928;7.172;2022-11-20T18:44:38;2.60;69.10
12849;DHT22;6493;50.928;7.172;2022-11-20T18:49:57;2.60;68.90
12849;DHT22;6493;50.928;7.172;2022-11-20T18:55:03;2.70;69.20
12849;DHT22;6493;50.928;7.172;2022-11-20T19:00:08;2.70;69.50
12849;DHT22;6493;50.928;7.172;2022-11-20T19:05:14;2.70;69.20
12849;DHT22;6493;50.928;7.172;2022-11-20T19:10:18;2.70;69.10
12849;DHT22;6493;50.928;7.172;2022-11-20T19:15:22;2.80;68.80
12849;DHT22;6493;50.928;7.172;2022-11-20T19:20:27;2.80;68.70
12849;DHT22;6493;50.928;7.172;2022-11-20T19:25:31;2.90;68.70
12849;DHT22;6493;50.928;7.172;2022-11-20T19:30:39;2.90;68.70
12849;DHT22;6493;50.928;7.172;2022-11-20T19:35:45;2.90;68.70
12849;DHT22;6493;50.928;7.172;2022-11-20T19:40:49;3.00;69.00
12849;DHT22;6493;50.928;7.172;2022-11-20T19:45:52;3.00;68.90
12849;DHT22;6493;50.928;7.172;2022-11-20T19:50:58;3.10;69.00
12849;DHT22;6493;50.928;7.172;2022-11-20T19:56:10;3.10;69.10
12849;DHT22;6493;50.928;7.172;2022-11-20T20:01:15;3.20;69.10
12849;DHT22;6493;50.928;7.172;2022-11-20T20:06:22;3.20;69.10
12849;DHT22;6493;50.928;7.172;2022-11-20T20:11:28;3.30;69.70
12849;DHT22;6493;50.928;7.172;2022-11-20T20:16:33;3.30;69.40
12849;DHT22;6493;50.928;7.172;2022-11-20T20:21:38;3.40;69.50
12849;DHT22;6493;50.928;7.172;2022-11-20T20:26:42;3.50;69.50
12849;DHT22;6493;50.928;7.172;2022-11-20T20:31:45;3.50;69.40
12849;DHT22;6493;50.928;7.172;2022-11-20T20:36:50;3.60;69.50
12849;DHT22;6493;50.928;7.172;2022-11-20T20:41:54;3.60;69.40
12849;DHT22;6493;50.928;7.172;2022-11-20T20:46:58;3.60;69.70
12849;DHT22;6493;50.928;7.172;2022-11-20T20:52:03;3.60;69.70
12849;DHT22;6493;50.928;7.172;2022-11-20T20:57:09;3.70;69.90
12849;DHT22;6493;50.928;7.172;2022-11-20T21:02:13;3.70;69.50
12849;DHT22;6493;50.928;7.172;2022-11-20T21:07:18;3.70;69.80
12849;DHT22;6493;50.928;7.172;2022-11-20T21:12:21;3.80;68.50
12849;DHT22;6493;50.928;7.172;2022-11-20T21:17:25;3.80;68.20
12849;DHT22;6493;50.928;7.172;2022-11-20T21:22:30;3.80;68.20
12849;DHT22;6493;50.928;7.172;2022-11-20T21:27:37;3.80;68.20
12849;DHT22;6493;50.928;7.172;2022-11-20T21:32:41;3.80;68.30
12849;DHT22;6493;50.928;7.172;2022-11-20T21:37:46;3.80;68.10
12849;DHT22;6493;50.928;7.172;2022-11-20T21:42:49;3.80;68.30
12849;DHT22;6493;50.928;7.172;2022-11-20T21:47:53;3.80;67.80
12849;DHT22;6493;50.928;7.172;2022-11-20T21:52:58;3.80;67.90
12849;DHT22;6493;50.928;7.172;2022-11-20T21:58:01;3.80;67.90
12849;DHT22;6493;50.928;7.172;2022-11-20T22:03:05;3.80;68.10
12849;DHT22;6493;50.928;7.172;2022-11-20T22:08:10;3.80;68.10
12849;DHT22;6493;50.928;7.172;2022-11-20T22:13:13;3.70;69.20
12849;DHT22;6493;50.928;7.172;2022-11-20T22:18:35;3.70;69.20
12849;DHT22;6493;50.928;7.172;2022-11-20T22:23:40;3.80;68.20
12849;DHT22;6493;50.928;7.172;2022-11-20T22:28:45;3.70;69.30
12849;DHT22;6493;50.928;7.172;2022-11-20T22:33:49;3.70;69.10
12849;DHT22;6493;50.928;7.172;2022-11-20T22:38:55;3.70;69.00
12849;DHT22;6493;50.928;7.172;2022-11-20T22:44:00;3.60;68.90
12849;DHT22;6493;50.928;7.172;2022-11-20T22:49:05;3.60;69.30
12849;DHT22;6493;50.928;7.172;2022-11-20T22:54:11;3.60;70.00
12849;DHT22;6493;50.928;7.172;2022-11-20T22:59:15;3.60;69.50
12849;DHT22;6493;50.928;7.172;2022-11-20T23:04:19;3.60;69.30
12849;DHT22;6493;50.928;7.172;2022-11-20T23:09:25;3.60;69.90
12849;DHT22;6493;50.928;7.172;2022-11-20T23:14:29;3.60;69.50
12849;DHT22;6493;50.928;7.172;2022-11-20T23:19:33;3.60;69.50
12849;DHT22;6493;50.928;7.172;2022-11-20T23:24:38;3.60;69.40
12849;DHT22;6493;50.928;7.172;2022-11-20T23:29:41;3.60;69.50
12849;DHT22;6493;50.928;7.172;2022-11-20T23:34:45;3.60;69.60
12849;DHT22;6493;50.928;7.172;2022-11-20T23:39:50;3.60;69.50
12849;DHT22;6493;50.928;7.172;2022-11-20T23:44:53;3.60;69.50
12849;DHT22;6493;50.928;7.172;2022-11-20T23:49:57;3.60;69.50
12849;DHT22;6493;50.928;7.172;2022-11-20T23:55:02;3.60;69.50
